createdAt,value
2019-02-11T00:02:31.994Z,2.63
2019-02-11T00:05:03.841Z,2.66
2019-02-11T00:07:35.814Z,2.60
2019-02-11T00:10:07.671Z,2.65
2019-02-11T00:12:39.868Z,2.54
2019-02-11T00:15:11.725Z,2.48
2019-02-11T00:17:43.750Z,2.52
2019-02-11T00:20:15.449Z,2.25
2019-02-11T00:22:47.159Z,2.34
2019-02-11T00:25:19.191Z,2.29
2019-02-11T00:27:50.891Z,2.25
2019-02-11T00:30:22.672Z,2.30
2019-02-11T00:32:54.908Z,1.94
2019-02-11T00:35:26.673Z,2.00
2019-02-11T00:37:58.391Z,1.98
2019-02-11T00:40:30.173Z,2.05
2019-02-11T00:43:01.886Z,2.05
2019-02-11T00:45:33.865Z,2.10
2019-02-11T00:48:07.147Z,2.06
2019-02-11T00:50:38.952Z,2.10
2019-02-11T00:53:10.678Z,2.17
2019-02-11T00:55:42.456Z,2.27
2019-02-11T00:58:14.217Z,2.19
2019-02-11T01:00:46.255Z,2.22
2019-02-11T01:03:17.967Z,2.22
2019-02-11T01:05:49.887Z,2.03
2019-02-11T01:08:21.744Z,2.16
2019-02-11T01:10:53.766Z,2.18
2019-02-11T01:13:27.928Z,2.25
2019-02-11T01:15:58.907Z,2.20
2019-02-11T01:18:30.846Z,2.11
2019-02-11T01:21:02.546Z,2.20
2019-02-11T01:23:34.291Z,2.19
2019-02-11T01:26:06.400Z,2.03
2019-02-11T01:28:38.099Z,2.15
2019-02-11T01:31:10.076Z,2.07
2019-02-11T01:33:41.869Z,2.08
2019-02-11T01:36:13.978Z,2.23
2019-02-11T01:38:45.710Z,2.18
2019-02-11T01:41:17.418Z,2.12
2019-02-11T01:43:49.135Z,2.10
2019-02-11T01:46:20.919Z,2.00
2019-02-11T01:48:52.887Z,2.05
2019-02-11T01:51:24.594Z,2.10
2019-02-11T01:53:56.394Z,2.07
2019-02-11T01:56:28.107Z,2.03
2019-02-11T01:59:00.989Z,2.05
2019-02-11T02:01:32.785Z,1.91
2019-02-11T02:04:04.632Z,1.99
2019-02-11T02:06:36.681Z,1.97
2019-02-11T02:09:08.945Z,1.91
2019-02-11T02:11:40.644Z,1.93
2019-02-11T02:14:12.452Z,1.90
2019-02-11T02:16:44.284Z,1.80
2019-02-11T02:19:15.999Z,1.86
2019-02-11T02:21:47.792Z,1.80
2019-02-11T02:24:19.503Z,1.69
2019-02-11T02:26:51.442Z,1.51
2019-02-11T02:29:23.176Z,1.74
2019-02-11T02:31:54.879Z,1.78
2019-02-11T02:34:26.583Z,1.75
2019-02-11T02:36:58.458Z,1.70
2019-02-11T02:39:30.451Z,1.57
2019-02-11T02:42:02.165Z,1.52
2019-02-11T02:44:34.971Z,1.57
2019-02-11T02:47:06.682Z,1.60
2019-02-11T02:49:38.798Z,1.60
2019-02-11T02:52:10.525Z,1.47
2019-02-11T02:54:42.490Z,1.49
2019-02-11T02:57:14.287Z,1.44
2019-02-11T02:59:46.416Z,1.31
2019-02-11T03:02:18.126Z,1.46
2019-02-11T03:04:49.868Z,1.44
2019-02-11T03:07:21.668Z,1.39
2019-02-11T03:09:53.625Z,1.40
2019-02-11T03:12:25.427Z,1.39
2019-02-11T03:14:57.144Z,1.40
2019-02-11T03:17:28.861Z,1.35
2019-02-11T03:20:00.626Z,1.37
2019-02-11T03:22:38.122Z,1.27
2019-02-11T03:25:10.157Z,1.37
2019-02-11T03:27:41.903Z,1.33
2019-02-11T03:30:13.734Z,1.26
2019-02-11T03:32:45.692Z,1.28
2019-02-11T03:35:17.403Z,1.25
2019-02-11T03:37:49.126Z,1.28
2019-02-11T03:40:20.837Z,1.12
2019-02-11T03:42:52.657Z,1.16
2019-02-11T03:45:24.511Z,1.22
2019-02-11T03:47:56.291Z,1.22
2019-02-11T03:50:28.102Z,1.19
2019-02-11T03:53:00.004Z,1.13
2019-02-11T03:55:31.830Z,1.19
2019-02-11T03:58:03.595Z,1.14
2019-02-11T04:00:36.273Z,1.07
2019-02-11T04:03:08.163Z,1.10
2019-02-11T04:05:40.289Z,1.09
2019-02-11T04:08:12.528Z,1.09
2019-02-11T04:10:44.218Z,1.06
2019-02-11T04:13:15.923Z,1.01
2019-02-11T04:15:47.635Z,0.97
2019-02-11T04:18:19.427Z,1.03
2019-02-11T04:20:51.431Z,0.97
2019-02-11T04:23:23.239Z,0.95
2019-02-11T04:25:54.990Z,0.94
2019-02-11T04:28:26.916Z,0.88
2019-02-11T04:30:58.852Z,0.83
2019-02-11T04:33:30.564Z,0.87
2019-02-11T04:36:02.344Z,0.82
2019-02-11T04:38:34.078Z,0.78
2019-02-11T04:41:06.213Z,0.75
2019-02-11T04:43:38.036Z,0.78
2019-02-11T04:46:10.108Z,0.79
2019-02-11T04:48:41.890Z,0.71
2019-02-11T04:51:13.579Z,0.68
2019-02-11T04:53:45.288Z,0.70
2019-02-11T04:56:17.006Z,0.69
2019-02-11T04:58:48.701Z,0.70
2019-02-11T05:01:20.497Z,0.59
2019-02-11T05:03:53.968Z,0.61
2019-02-11T05:06:25.905Z,0.59
2019-02-11T05:08:57.635Z,0.58
2019-02-11T05:11:29.841Z,0.49
2019-02-11T05:14:01.801Z,0.53
2019-02-11T05:16:33.504Z,0.56
2019-02-11T05:19:05.237Z,0.52
2019-02-11T05:21:36.955Z,0.35
2019-02-11T05:24:09.934Z,0.40
2019-02-11T05:26:41.794Z,0.40
2019-02-11T05:29:13.494Z,0.39
2019-02-11T05:31:45.190Z,0.20
2019-02-11T05:34:17.143Z,0.28
2019-02-11T05:36:48.850Z,0.10
2019-02-11T05:39:20.634Z,0.14
2019-02-11T05:41:52.334Z,0.22
2019-02-11T05:44:24.034Z,0.24
2019-02-11T05:46:55.739Z,-0.03
2019-02-11T05:49:27.701Z,0.03
2019-02-11T05:51:59.415Z,0.05
2019-02-11T05:54:31.144Z,0.26
2019-02-11T05:57:04.440Z,0.20
2019-02-11T05:59:37.968Z,0.16
2019-02-11T06:02:10.658Z,0.22
2019-02-11T06:04:42.391Z,0.19
2019-02-11T06:07:16.251Z,0.22
2019-02-11T06:10:35.454Z,0.16
2019-02-11T06:13:13.480Z,0.15
2019-02-11T06:15:47.105Z,0.22
2019-02-11T06:18:19.027Z,0.26
2019-02-11T06:20:59.956Z,0.24
2019-02-11T06:23:43.062Z,0.21
2019-02-11T06:26:23.849Z,0.27
2019-02-11T06:29:00.503Z,0.23
2019-02-11T06:31:32.881Z,0.21
2019-02-11T06:34:04.724Z,0.22
2019-02-11T06:36:36.497Z,0.20
2019-02-11T06:39:08.203Z,0.25
2019-02-11T06:41:40.154Z,0.22
2019-02-11T06:44:12.105Z,0.16
2019-02-11T06:46:43.796Z,0.15
2019-02-11T06:49:15.502Z,0.23
2019-02-11T06:51:47.270Z,0.18
2019-02-11T06:54:18.985Z,0.14
2019-02-11T06:56:50.711Z,0.21
2019-02-11T06:59:22.420Z,0.20
2019-02-11T07:01:54.119Z,0.17
2019-02-11T07:04:25.839Z,0.24
2019-02-11T07:06:57.545Z,0.24
2019-02-11T07:09:29.505Z,0.24
2019-02-11T07:12:01.445Z,0.32
2019-02-11T07:14:33.158Z,0.28
2019-02-11T07:17:04.849Z,0.34
2019-02-11T07:19:36.577Z,0.34
2019-02-11T07:22:09.483Z,0.44
2019-02-11T07:24:41.191Z,0.47
2019-02-11T07:27:13.434Z,0.53
2019-02-11T07:29:45.137Z,0.53
2019-02-11T07:32:16.848Z,0.54
2019-02-11T07:34:48.890Z,0.52
2019-02-11T07:37:20.591Z,0.53
2019-02-11T07:39:52.554Z,0.55
2019-02-11T07:42:52.308Z,0.56
2019-02-11T07:45:32.367Z,0.55
2019-02-11T07:48:04.071Z,0.61
2019-02-11T07:50:35.781Z,0.61
2019-02-11T07:53:07.490Z,0.58
2019-02-11T07:55:39.201Z,0.53
2019-02-11T07:58:11.058Z,0.57
2019-02-11T08:00:42.765Z,0.51
2019-02-11T08:03:14.510Z,0.57
2019-02-11T08:05:46.223Z,0.58
2019-02-11T08:08:18.079Z,0.58
2019-02-11T08:10:49.847Z,0.59
2019-02-11T08:13:21.630Z,0.55
2019-02-11T08:15:53.582Z,0.54
2019-02-11T08:18:25.548Z,0.55
2019-02-11T08:20:57.253Z,0.63
2019-02-11T08:23:29.209Z,0.57
2019-02-11T08:26:01.230Z,0.59
2019-02-11T08:28:33.012Z,0.55
2019-02-11T08:31:05.127Z,0.56
2019-02-11T08:33:37.804Z,0.47
2019-02-11T08:36:09.782Z,0.36
2019-02-11T08:38:41.479Z,0.47
2019-02-11T08:41:13.266Z,0.48
2019-02-11T08:43:52.385Z,0.44
2019-02-11T08:46:43.016Z,0.47
2019-02-11T08:49:09.430Z,0.52
2019-02-11T08:51:41.176Z,0.49
2019-02-11T08:54:12.896Z,0.58
2019-02-11T08:56:44.849Z,0.53
2019-02-11T08:59:16.615Z,0.59
2019-02-11T09:01:48.326Z,0.69
2019-02-11T09:04:20.357Z,0.50
2019-02-11T09:06:52.075Z,0.63
2019-02-11T09:09:23.806Z,0.77
2019-02-11T09:11:55.524Z,0.75
2019-02-11T09:14:27.520Z,0.73
2019-02-11T09:16:59.249Z,0.78
2019-02-11T09:19:31.077Z,0.80
2019-02-11T09:22:07.676Z,0.81
2019-02-11T09:24:36.766Z,0.89
2019-02-11T09:27:09.791Z,0.81
2019-02-11T09:29:41.498Z,0.87
2019-02-11T09:32:13.290Z,0.94
2019-02-11T09:34:45.239Z,0.86
2019-02-11T09:37:17.035Z,0.85
2019-02-11T09:39:48.749Z,0.83
2019-02-11T09:42:20.747Z,0.85
2019-02-11T09:44:52.465Z,0.87
2019-02-11T09:47:24.168Z,0.88
2019-02-11T09:50:21.124Z,0.91
2019-02-11T09:52:54.054Z,0.90
2019-02-11T09:55:28.546Z,0.98
2019-02-11T09:58:01.568Z,0.93
2019-02-11T10:00:33.407Z,0.93
2019-02-11T10:03:05.527Z,0.95
2019-02-11T10:05:37.319Z,0.98
2019-02-11T10:08:09.923Z,0.96
2019-02-11T10:10:41.714Z,0.97
2019-02-11T10:13:13.428Z,0.99
2019-02-11T10:15:45.533Z,0.94
2019-02-11T10:18:17.928Z,0.99
2019-02-11T10:21:15.019Z,0.98
2019-02-11T10:23:48.415Z,0.98
2019-02-11T10:26:20.278Z,1.08
2019-02-11T10:28:52.254Z,1.07
2019-02-11T10:31:23.938Z,1.08
2019-02-11T10:33:55.715Z,1.07
2019-02-11T10:36:27.497Z,1.15
2019-02-11T10:38:59.275Z,1.16
2019-02-11T10:41:31.057Z,1.08
2019-02-11T10:44:02.786Z,1.13
2019-02-11T10:46:34.568Z,1.09
2019-02-11T10:49:06.282Z,1.07
2019-02-11T10:51:38.050Z,1.08
2019-02-11T10:54:09.820Z,1.05
2019-02-11T10:56:41.849Z,1.02
2019-02-11T10:59:13.927Z,1.08
2019-02-11T11:01:45.793Z,1.16
2019-02-11T11:04:17.507Z,1.20
2019-02-11T11:06:49.594Z,1.24
2019-02-11T11:09:21.629Z,1.27
2019-02-11T11:11:53.363Z,1.25
2019-02-11T11:14:25.144Z,1.32
2019-02-11T11:16:57.079Z,1.43
2019-02-11T11:19:28.866Z,1.58
2019-02-11T11:22:00.575Z,1.65
2019-02-11T11:24:32.434Z,1.77
2019-02-11T11:27:04.135Z,1.85
2019-02-11T11:29:36.307Z,1.95
2019-02-11T11:32:08.327Z,1.94
2019-02-11T11:34:40.142Z,1.90
2019-02-11T11:37:13.394Z,1.94
2019-02-11T11:39:45.293Z,2.01
2019-02-11T11:42:17.067Z,2.08
2019-02-11T11:44:48.792Z,2.21
2019-02-11T11:47:20.476Z,2.11
2019-02-11T11:49:52.171Z,1.96
2019-02-11T11:52:23.944Z,2.12
2019-02-11T11:54:55.732Z,2.05
2019-02-11T11:57:27.925Z,2.16
2019-02-11T11:59:59.632Z,2.17
2019-02-11T12:02:31.728Z,2.18
2019-02-11T12:05:03.454Z,2.18
2019-02-11T12:07:35.233Z,2.19
2019-02-11T12:10:07.268Z,2.26
2019-02-11T12:12:39.245Z,2.19
2019-02-11T12:15:11.360Z,2.22
2019-02-11T12:17:43.636Z,2.27
2019-02-11T12:20:15.569Z,2.34
2019-02-11T12:22:47.392Z,2.21
2019-02-11T12:25:19.265Z,2.28
2019-02-11T12:27:51.209Z,2.31
2019-02-11T12:30:25.701Z,2.36
2019-02-11T12:32:57.443Z,2.34
2019-02-11T12:35:29.150Z,2.43
2019-02-11T12:38:00.859Z,2.46
2019-02-11T12:40:32.596Z,2.50
2019-02-11T12:43:04.379Z,2.58
2019-02-11T12:45:36.169Z,2.66
2019-02-11T12:48:07.956Z,2.68
2019-02-11T12:50:39.699Z,2.64
2019-02-11T12:53:11.699Z,2.57
2019-02-11T12:55:43.654Z,2.56
2019-02-11T12:58:15.365Z,2.58
2019-02-11T13:00:47.051Z,2.55
2019-02-11T13:03:18.750Z,2.57
2019-02-11T13:05:50.537Z,2.60
2019-02-11T13:08:22.401Z,2.63
2019-02-11T13:13:49.530Z,2.62
2019-02-11T13:16:21.894Z,2.55
2019-02-11T13:19:02.434Z,2.49
2019-02-11T13:21:34.484Z,2.55
2019-02-11T13:24:06.582Z,2.60
2019-02-11T13:26:41.221Z,2.70
2019-02-11T13:29:13.300Z,2.86
2019-02-11T13:31:52.397Z,2.95
2019-02-11T13:34:31.397Z,3.13
2019-02-11T13:37:03.189Z,3.34
2019-02-11T13:39:34.888Z,3.37
2019-02-11T13:42:07.007Z,3.30
2019-02-11T13:44:38.696Z,3.08
2019-02-11T13:47:10.503Z,3.06
2019-02-11T13:49:46.393Z,2.97
2019-02-11T13:52:15.878Z,2.91
2019-02-11T13:54:47.632Z,2.93
2019-02-11T13:57:19.362Z,2.94
2019-02-11T13:59:51.123Z,3.16
2019-02-11T14:02:22.974Z,3.36
2019-02-11T14:04:54.928Z,3.51
2019-02-11T14:07:26.727Z,3.51
2019-02-11T14:10:02.025Z,3.78
2019-02-11T14:12:31.947Z,3.78
2019-02-11T14:15:03.645Z,3.73
2019-02-11T14:17:35.780Z,3.63
2019-02-11T14:20:12.477Z,3.51
2019-02-11T14:22:44.259Z,3.49
2019-02-11T14:25:16.447Z,3.78
2019-02-11T14:27:48.223Z,3.55
2019-02-11T14:30:21.314Z,3.45
2019-02-11T14:32:53.688Z,3.30
2019-02-11T14:35:25.535Z,3.26
2019-02-11T14:38:01.579Z,3.17
2019-02-11T14:40:30.865Z,3.24
2019-02-11T14:43:02.650Z,3.21
2019-02-11T14:45:35.419Z,3.23
2019-02-11T14:48:25.745Z,3.55
2019-02-11T14:50:42.900Z,3.45
2019-02-11T14:53:14.691Z,3.70
2019-02-11T14:55:46.531Z,3.50
2019-02-11T14:58:18.256Z,3.47
2019-02-11T15:00:50.032Z,3.47
2019-02-11T15:03:21.752Z,3.60
2019-02-11T15:05:53.717Z,3.73
2019-02-11T15:08:25.503Z,3.71
2019-02-11T15:10:57.199Z,3.61
2019-02-11T15:13:28.920Z,3.60
2019-02-11T15:16:00.616Z,3.66
2019-02-11T15:18:34.293Z,3.75
2019-02-11T15:21:05.785Z,4.02
2019-02-11T15:23:37.497Z,4.12
2019-02-11T15:26:10.145Z,3.87
2019-02-11T15:28:41.827Z,3.66
2019-02-11T15:31:13.537Z,3.69
2019-02-11T15:33:46.462Z,3.76
2019-02-11T15:36:18.653Z,3.62
2019-02-11T15:38:50.344Z,3.42
2019-02-11T15:41:22.044Z,3.34
2019-02-11T15:43:53.785Z,3.15
2019-02-11T15:46:25.491Z,3.10
2019-02-11T15:48:57.196Z,3.11
2019-02-11T15:51:28.893Z,3.02
2019-02-11T15:54:25.262Z,2.97
2019-02-11T15:56:40.460Z,2.91
2019-02-11T15:59:12.192Z,2.73
2019-02-11T16:01:44.161Z,2.70
2019-02-11T16:04:15.877Z,2.75
2019-02-11T16:06:47.838Z,2.72
2019-02-11T16:09:19.536Z,2.62
2019-02-11T16:11:52.033Z,2.56
2019-02-11T16:14:23.886Z,2.56
2019-02-11T16:16:55.596Z,2.49
2019-02-11T16:19:27.288Z,2.51
2019-02-11T16:21:59.338Z,2.50
2019-02-11T16:24:31.043Z,2.50
2019-02-11T16:27:02.778Z,2.51
2019-02-11T16:29:34.509Z,2.47
2019-02-11T16:32:06.359Z,2.45
2019-02-11T16:34:38.082Z,2.45
2019-02-11T16:37:09.812Z,2.38
2019-02-11T16:39:41.977Z,2.39
2019-02-11T16:42:13.702Z,2.51
2019-02-11T16:44:45.401Z,2.49
2019-02-11T16:47:17.379Z,2.51
2019-02-11T16:49:49.105Z,2.50
2019-02-11T16:52:20.826Z,2.31
2019-02-11T16:54:52.525Z,2.53
2019-02-11T16:57:24.307Z,2.52
2019-02-11T16:59:56.325Z,2.48
2019-02-11T17:02:34.071Z,2.48
2019-02-11T17:05:08.246Z,2.45
2019-02-11T17:07:41.925Z,2.43
2019-02-11T17:10:13.962Z,2.34
2019-02-11T17:12:45.894Z,2.31
2019-02-11T17:15:18.239Z,2.39
2019-02-11T17:17:49.962Z,2.44
2019-02-11T17:20:21.742Z,2.28
2019-02-11T17:22:53.530Z,2.43
2019-02-11T17:25:26.155Z,2.35
2019-02-11T17:27:57.937Z,2.36
2019-02-11T17:30:29.776Z,2.28
2019-02-11T17:33:01.479Z,2.31
2019-02-11T17:35:33.180Z,2.33
2019-02-11T17:38:04.883Z,2.30
2019-02-11T17:40:36.680Z,2.21
2019-02-11T17:43:09.483Z,2.24
2019-02-11T17:45:41.198Z,2.20
2019-02-11T17:48:12.984Z,2.16
2019-02-11T17:50:44.689Z,2.29
2019-02-11T17:53:16.706Z,2.23
2019-02-11T17:55:48.473Z,2.22
2019-02-11T17:58:20.258Z,2.15
2019-02-11T18:00:56.148Z,2.26
2019-02-11T18:03:27.861Z,2.18
2019-02-11T18:06:00.412Z,2.17
2019-02-11T18:08:32.202Z,2.09
2019-02-11T18:11:04.212Z,1.92
2019-02-11T18:13:35.991Z,2.17
2019-02-11T18:16:07.755Z,2.15
2019-02-11T18:18:39.542Z,2.17
2019-02-11T18:21:11.255Z,2.10
2019-02-11T18:23:42.961Z,2.17
2019-02-11T18:26:15.631Z,2.15
2019-02-11T18:28:47.589Z,2.09
2019-02-11T18:31:19.695Z,2.10
2019-02-11T18:33:51.469Z,2.13
2019-02-11T18:36:23.428Z,2.21
2019-02-11T18:38:55.281Z,2.21
2019-02-11T18:41:26.981Z,2.26
2019-02-11T18:43:58.771Z,2.19
2019-02-11T18:46:30.470Z,2.19
2019-02-11T18:49:02.178Z,2.20
2019-02-11T18:51:33.886Z,2.22
2019-02-11T18:54:05.597Z,2.15
2019-02-11T18:56:37.366Z,2.11
2019-02-11T18:59:09.412Z,2.14
2019-02-11T19:01:41.118Z,2.13
2019-02-11T19:04:13.016Z,2.20
2019-02-11T19:06:44.802Z,2.19
2019-02-11T19:09:18.656Z,2.17
2019-02-11T19:11:50.403Z,2.14
2019-02-11T19:14:22.129Z,2.07
2019-02-11T19:16:53.858Z,2.07
2019-02-11T19:19:25.666Z,2.10
2019-02-11T19:21:57.630Z,2.06
2019-02-11T19:24:29.357Z,2.04
2019-02-11T19:27:01.434Z,1.97
2019-02-11T19:29:33.159Z,1.98
2019-02-11T19:32:04.869Z,1.96
2019-02-11T19:34:36.670Z,1.89
2019-02-11T19:37:09.647Z,1.86
2019-02-11T19:39:41.361Z,1.83
2019-02-11T19:42:13.772Z,1.77
2019-02-11T19:44:45.509Z,1.70
2019-02-11T19:47:17.312Z,1.76
2019-02-11T19:49:51.748Z,1.81
2019-02-11T19:52:22.458Z,1.81
2019-02-11T19:54:54.242Z,1.63
2019-02-11T19:57:25.955Z,1.79
2019-02-11T19:59:57.702Z,1.77
2019-02-11T20:02:30.334Z,1.74
2019-02-11T20:05:02.259Z,1.81
2019-02-11T20:07:34.033Z,1.78
2019-02-11T20:10:07.438Z,1.77
2019-02-11T20:12:39.264Z,1.80
2019-02-11T20:15:14.540Z,1.78
2019-02-11T20:17:46.327Z,1.81
2019-02-11T20:20:20.608Z,1.28
2019-02-11T20:22:52.889Z,1.05
2019-02-11T20:25:24.628Z,1.18
2019-02-11T20:27:56.629Z,1.17
2019-02-11T20:30:35.903Z,1.03
2019-02-11T20:33:07.863Z,1.04
2019-02-11T20:35:48.112Z,0.68
2019-02-11T20:38:19.836Z,0.57
2019-02-11T20:40:51.567Z,0.02
2019-02-11T20:43:23.897Z,0.11
2019-02-11T20:45:55.607Z,-0.24
2019-02-11T20:48:27.409Z,-0.10
2019-02-11T20:50:59.161Z,0.06
2019-02-11T20:53:30.950Z,0.17
2019-02-11T20:56:02.665Z,0.37
2019-02-11T20:58:34.554Z,0.36
2019-02-11T21:01:06.288Z,0.45
2019-02-11T21:03:38.002Z,0.40
2019-02-11T21:06:10.218Z,0.39
2019-02-11T21:08:42.248Z,0.39
2019-02-11T21:11:14.024Z,0.32
2019-02-11T21:13:45.728Z,0.42
2019-02-11T21:16:17.459Z,0.32
2019-02-11T21:18:49.188Z,0.39
2019-02-11T21:21:20.926Z,0.50
2019-02-11T21:23:52.662Z,0.44
2019-02-11T21:26:24.429Z,0.46
2019-02-11T21:28:56.122Z,0.48
2019-02-11T21:31:27.849Z,0.33
2019-02-11T21:34:00.623Z,0.23
2019-02-11T21:36:32.358Z,0.46
2019-02-11T21:39:05.010Z,0.48
2019-02-11T21:41:36.805Z,0.35
2019-02-11T21:44:09.764Z,0.43
2019-02-11T21:46:41.573Z,0.27
2019-02-11T21:49:13.682Z,0.35
2019-02-11T21:51:45.419Z,0.49
2019-02-11T21:54:17.151Z,0.34
2019-02-11T21:56:49.148Z,0.36
2019-02-11T21:59:20.873Z,0.55
2019-02-11T22:01:52.604Z,0.68
2019-02-11T22:04:25.032Z,0.69
2019-02-11T22:09:34.136Z,0.61
2019-02-11T22:12:06.025Z,0.21
2019-02-11T22:14:37.735Z,0.28
2019-02-11T22:17:09.462Z,0.49
2019-02-11T22:19:41.189Z,0.51
2019-02-11T22:22:12.931Z,0.38
2019-02-11T22:24:44.650Z,0.59
2019-02-11T22:27:16.381Z,0.48
2019-02-11T22:29:48.152Z,0.25
2019-02-11T22:32:20.084Z,0.54
2019-02-11T22:34:51.780Z,0.51
2019-02-11T22:37:23.507Z,0.39
2019-02-11T22:39:55.464Z,0.52
2019-02-11T22:42:27.680Z,0.55
2019-02-11T22:44:59.390Z,0.54
2019-02-11T22:47:31.120Z,0.50
2019-02-11T22:50:02.821Z,0.52
2019-02-11T22:52:34.533Z,0.17
2019-02-11T22:55:07.334Z,0.32
2019-02-11T22:57:39.148Z,0.57
2019-02-11T23:00:47.139Z,0.59
2019-02-11T23:03:19.000Z,0.49
2019-02-11T23:05:50.807Z,0.52
2019-02-11T23:08:23.662Z,0.54
2019-02-11T23:10:55.436Z,0.38
2019-02-11T23:13:27.300Z,0.47
2019-02-11T23:15:59.143Z,0.52
2019-02-11T23:18:31.830Z,0.56
2019-02-11T23:21:03.668Z,0.61
2019-02-11T23:23:35.455Z,0.59
2019-02-11T23:26:07.166Z,0.49
2019-02-11T23:28:38.885Z,0.51
2019-02-11T23:31:10.596Z,0.50
2019-02-11T23:33:42.308Z,0.49
2019-02-11T23:36:14.106Z,0.37
2019-02-11T23:38:45.819Z,0.44
2019-02-11T23:41:17.782Z,0.43
2019-02-11T23:43:49.558Z,0.40
2019-02-11T23:46:21.352Z,0.52
2019-02-11T23:48:53.067Z,0.52
2019-02-11T23:51:24.771Z,0.43
2019-02-11T23:53:56.729Z,0.43
2019-02-11T23:56:28.446Z,0.45
2019-02-11T23:59:00.186Z,0.48
